Time;durP1;ratioP1;P1;durP2;ratioP2;P2;SDS_P1;SDS_P2;PMS_P1;PMS_P2;Temp;Humidity;BMP_temperature;BMP_pressure;BME280_temperature;BME280_humidity;BME280_pressure;Samples;Min_cycle;Max_cycle;Signal;HPM_P1;HPM_P2
2022/10/12 00:01:41;;;;;;;1.42;1.33;;;;;;;9.24;59.92;101942.50;5181651;28;20453;-83
2022/10/12 00:04:12;;;;;;;0.35;0.35;;;;;;;9.24;60.16;101942.50;5166161;28;20038;-82
2022/10/12 00:06:48;;;;;;;2.33;2.20;;;;;;;9.23;59.84;101945.09;5149761;28;20033;-82
2022/10/12 00:09:21;;;;;;;1.35;1.25;;;;;;;9.23;59.74;101939.84;5160779;28;20045;-84
2022/10/12 00:11:52;;;;;;;1.30;1.30;;;;;;;9.19;59.98;101938.13;5159004;28;20053;-82
2022/10/12 00:14:22;;;;;;;4.50;1.80;;;;;;;9.11;59.73;101936.41;5167614;28;20049;-82
2022/10/12 00:16:53;;;;;;;1.35;1.33;;;;;;;9.10;60.03;101928.53;5188546;28;20030;-82
2022/10/12 00:19:29;;;;;;;1.98;1.88;;;;;;;9.09;60.34;101932.91;5122975;28;20056;-82
2022/10/12 00:22:00;;;;;;;0.60;0.60;;;;;;;9.06;60.33;101932.91;5154811;28;20030;-82
2022/10/12 00:24:33;;;;;;;2.33;1.80;;;;;;;9.07;59.67;101929.41;5144888;28;20042;-82
2022/10/12 00:27:07;;;;;;;2.80;1.77;;;;;;;9.09;59.88;101930.28;5187128;28;20044;-82
2022/10/12 00:29:41;;;;;;;1.48;1.38;;;;;;;8.98;59.78;101929.41;5152139;28;20570;-83
2022/10/12 00:32:14;;;;;;;0.68;0.68;;;;;;;9.00;59.83;101930.28;5190377;28;20034;-82
2022/10/12 00:34:45;;;;;;;19.57;3.23;;;;;;;8.97;60.15;101927.66;5143398;28;20411;-82
2022/10/12 00:37:16;;;;;;;1.02;1.02;;;;;;;8.93;59.66;101925.94;5167628;28;20034;-82
2022/10/12 00:40:09;;;;;;;0.88;0.88;;;;;;;8.91;60.14;101923.34;5171180;28;20068;-83
2022/10/12 00:42:41;;;;;;;1.02;1.02;;;;;;;8.88;60.24;101930.31;5184990;28;20034;-82
2022/10/12 00:45:12;;;;;;;0.98;0.98;;;;;;;8.87;59.90;101925.94;5136411;28;20080;-83
2022/10/12 00:47:54;;;;;;;9.45;1.13;;;;;;;8.86;60.25;101919.81;5151007;28;20030;-82
2022/10/12 00:50:31;;;;;;;1.25;1.25;;;;;;;8.84;60.26;101920.72;5152675;28;20066;-82
2022/10/12 00:53:12;;;;;;;1.88;1.77;;;;;;;8.81;60.46;101921.59;5138218;28;20066;-82
2022/10/12 00:55:48;;;;;;;1.30;1.27;;;;;;;8.74;60.29;101918.09;5145642;28;20057;-83
2022/10/12 00:58:20;;;;;;;0.77;0.77;;;;;;;8.73;60.10;101920.72;5171612;28;20041;-82
2022/10/12 01:00:50;;;;;;;1.40;1.33;;;;;;;8.69;60.28;101925.09;5174957;28;20088;-83
2022/10/12 01:03:22;;;;;;;1.73;1.63;;;;;;;8.57;60.70;101931.19;5175685;28;20064;-83
2022/10/12 01:05:53;;;;;;;2.10;1.02;;;;;;;8.53;60.15;101936.41;5186510;28;20272;-82
2022/10/12 01:08:23;;;;;;;9.23;2.90;;;;;;;8.53;60.22;101936.41;5169139;28;20069;-82
2022/10/12 01:10:54;;;;;;;7.50;2.45;;;;;;;8.55;60.56;101929.44;5169870;28;20076;-82
2022/10/12 01:13:29;;;;;;;2.47;0.82;;;;;;;8.56;60.21;101932.06;5183724;28;20062;-84
2022/10/12 01:16:42;;;;;;;2.47;1.90;;;;;;;8.56;60.39;101925.94;5183508;28;20026;-82
2022/10/12 01:19:58;;;;;;;1.02;1.00;;;;;;;8.49;60.37;101928.53;5185869;28;20042;-82
2022/10/12 01:22:35;;;;;;;7.43;3.40;;;;;;;8.48;60.86;101921.56;5149303;28;20033;-83
2022/10/12 01:25:24;;;;;;;0.68;0.68;;;;;;;8.50;60.53;101917.22;5119255;28;20163;-82
2022/10/12 01:28:05;;;;;;;0.75;0.75;;;;;;;8.49;60.44;101925.06;5155997;28;20477;-82
2022/10/12 01:30:39;;;;;;;1.05;1.00;;;;;;;8.50;60.55;101919.84;5166282;28;20597;-82
2022/10/12 01:33:22;;;;;;;1.05;1.05;;;;;;;8.49;60.83;101906.75;5144790;28;20030;-83
2022/10/12 01:36:18;;;;;;;1.58;1.52;;;;;;;8.50;60.45;101916.34;5198952;28;20035;-83
2022/10/12 01:39:20;;;;;;;1.55;1.48;;;;;;;8.43;60.49;101906.72;5146663;28;20049;-82
2022/10/12 01:42:02;;;;;;;0.70;0.70;;;;;;;8.38;60.55;101904.13;5175666;28;20623;-82
2022/10/12 01:44:34;;;;;;;1.85;1.75;;;;;;;8.41;60.66;101905.84;5187916;28;20668;-83
2022/10/12 01:47:08;;;;;;;1.88;1.05;;;;;;;8.36;60.52;101898.00;5197436;28;20082;-81
2022/10/12 01:49:39;;;;;;;1.73;1.35;;;;;;;8.29;60.35;101898.88;5198812;28;20052;-81
2022/10/12 01:52:53;;;;;;;0.52;0.52;;;;;;;8.25;60.30;101894.50;5166707;28;20667;-84
2022/10/12 01:55:48;;;;;;;2.90;2.53;;;;;;;8.27;60.94;101893.63;5169960;28;20119;-82
2022/10/12 01:58:40;;;;;;;0.82;0.82;;;;;;;8.26;60.73;101899.75;5178567;28;20038;-83
2022/10/12 02:01:48;;;;;;;0.60;0.60;;;;;;;8.26;60.64;101896.25;5182415;28;20108;-81
2022/10/12 02:04:28;;;;;;;0.60;0.60;;;;;;;8.19;60.46;101893.63;5166731;28;20061;-83
2022/10/12 02:07:04;;;;;;;0.55;0.55;;;;;;;8.13;60.90;101896.22;5143125;28;20026;-84
2022/10/12 02:09:40;;;;;;;0.90;0.90;;;;;;;8.13;61.00;101891.00;5185916;28;20041;-81
2022/10/12 02:12:15;;;;;;;1.15;1.05;;;;;;;8.10;60.73;101896.22;5197785;28;20045;-82
2022/10/12 02:14:51;;;;;;;1.48;1.27;;;;;;;8.10;60.44;101888.38;5174437;28;20041;-82
2022/10/12 02:17:23;;;;;;;1.40;1.30;;;;;;;8.14;60.38;101897.09;5165218;28;20088;-82
2022/10/12 02:19:57;;;;;;;0.65;0.65;;;;;;;8.09;60.65;101897.06;5209016;28;20428;-81
2022/10/12 02:22:34;;;;;;;0.88;0.88;;;;;;;8.01;60.86;101893.56;5168211;28;20041;-82
2022/10/12 02:25:09;;;;;;;0.63;0.63;;;;;;;8.05;60.63;101884.88;5158867;28;20163;-83
2022/10/12 02:27:45;;;;;;;1.05;1.05;;;;;;;8.05;60.73;101887.50;5134350;28;20581;-83
2022/10/12 02:30:17;;;;;;;0.85;0.85;;;;;;;8.03;60.75;101884.00;5138436;28;20056;-82
2022/10/12 02:33:01;;;;;;;3.80;1.80;;;;;;;7.99;60.85;101877.00;5187108;28;20048;-82
2022/10/12 02:35:54;;;;;;;3.67;1.48;;;;;;;7.99;61.19;101882.25;5149277;28;20266;-83
2022/10/12 02:38:42;;;;;;;3.58;2.70;;;;;;;7.99;61.06;101877.00;5182377;28;20041;-82
2022/10/12 02:41:29;;;;;;;0.68;0.68;;;;;;;7.99;61.08;101871.78;5206997;28;20132;-81
2022/10/12 02:44:09;;;;;;;0.75;0.75;;;;;;;7.99;61.38;101869.16;5177188;28;20439;-82
2022/10/12 02:46:42;;;;;;;0.40;0.40;;;;;;;7.95;61.17;101867.44;5172716;28;20036;-81
2022/10/12 02:49:14;;;;;;;1.13;1.13;;;;;;;7.93;60.58;101861.31;5140908;28;20046;-82
2022/10/12 02:51:46;;;;;;;0.52;0.52;;;;;;;7.93;60.96;101856.09;5164601;28;20061;-83
2022/10/12 02:54:16;;;;;;;1.45;1.35;;;;;;;7.94;60.95;101855.22;5146853;28;20617;-81
2022/10/12 02:56:47;;;;;;;1.77;1.67;;;;;;;7.90;60.72;101850.84;5161535;28;20034;-81
2022/10/12 02:59:18;;;;;;;1.50;1.40;;;;;;;7.88;60.87;101846.53;5151438;28;20053;-82
2022/10/12 03:01:49;;;;;;;1.15;1.15;;;;;;;7.87;61.19;101846.50;5159005;28;20031;-82
2022/10/12 03:04:20;;;;;;;1.90;0.82;;;;;;;7.85;61.06;101846.50;5191888;28;20065;-84
2022/10/12 03:06:51;;;;;;;0.70;0.70;;;;;;;7.84;61.36;101844.75;5190725;28;20525;-84
2022/10/12 03:09:21;;;;;;;0.65;0.65;;;;;;;7.84;61.14;101847.38;5186221;28;20097;-82
2022/10/12 03:11:52;;;;;;;0.85;0.85;;;;;;;7.82;61.43;101841.25;5157685;28;20114;-84
2022/10/12 03:14:22;;;;;;;1.75;1.65;;;;;;;7.80;61.23;101840.41;5170987;28;20109;-83
2022/10/12 03:16:53;;;;;;;3.42;0.80;;;;;;;7.81;60.92;101842.13;5163544;28;20037;-84
2022/10/12 03:19:23;;;;;;;2.10;1.95;;;;;;;7.81;61.12;101836.91;5159159;28;20096;-82
2022/10/12 03:21:54;;;;;;;1.13;1.08;;;;;;;7.81;61.22;101842.13;5140543;28;20278;-83
2022/10/12 03:24:24;;;;;;;1.30;1.10;;;;;;;7.80;61.04;101844.75;5183293;28;20394;-83
2022/10/12 03:26:55;;;;;;;1.90;1.50;;;;;;;7.76;60.91;101835.16;5172991;28;20167;-84
2022/10/12 03:29:25;;;;;;;1.38;1.35;;;;;;;7.72;61.12;101837.75;5183662;28;20041;-83
2022/10/12 03:31:56;;;;;;;0.85;0.85;;;;;;;7.72;60.92;101847.34;5157727;28;20113;-83
2022/10/12 03:34:26;;;;;;;0.55;0.55;;;;;;;7.55;61.50;101856.00;5156777;28;20107;-82
2022/10/12 03:36:57;;;;;;;1.10;1.10;;;;;;;7.60;60.90;101842.06;5171088;28;20030;-82
2022/10/12 03:39:27;;;;;;;0.40;0.40;;;;;;;7.57;61.60;101843.78;5161224;28;20073;-82
2022/10/12 03:41:58;;;;;;;0.43;0.43;;;;;;;7.54;61.05;101840.31;5156220;28;20026;-82
2022/10/12 03:44:32;;;;;;;1.95;1.10;;;;;;;7.54;61.15;101848.13;5132643;28;20185;-83
2022/10/12 03:47:05;;;;;;;0.50;0.50;;;;;;;7.59;61.25;101845.53;5179951;28;20089;-83
2022/10/12 03:49:39;;;;;;;0.75;0.75;;;;;;;7.54;61.23;101838.59;5149854;28;20045;-84
2022/10/12 03:52:10;;;;;;;0.75;0.75;;;;;;;7.55;61.56;101844.66;5175081;28;20023;-84
2022/10/12 03:54:40;;;;;;;0.30;0.30;;;;;;;7.56;61.65;101836.81;5157265;28;20564;-84
2022/10/12 03:57:11;;;;;;;1.48;1.40;;;;;;;7.51;61.73;101832.47;5171598;28;20095;-84
2022/10/12 03:59:44;;;;;;;1.00;1.00;;;;;;;7.50;61.98;101841.19;5178451;28;20049;-85
2022/10/12 04:02:15;;;;;;;;;;;;;;;7.48;61.55;101838.53;5190695;28;20010;-84
2022/10/12 04:04:45;;;;;;;0.82;0.82;;;;;;;7.46;61.30;101835.06;5178754;28;20155;-82
2022/10/12 04:07:16;;;;;;;0.98;0.93;;;;;;;7.46;61.88;101828.97;5195176;28;20014;-83
2022/10/12 04:09:49;;;;;;;1.17;1.10;;;;;;;7.44;61.65;101839.41;5125902;28;20053;-82
2022/10/12 04:12:23;;;;;;;1.38;1.27;;;;;;;7.45;61.40;101833.31;5172611;28;20143;-82
2022/10/12 04:14:54;;;;;;;1.27;1.23;;;;;;;7.36;61.43;101833.28;5162626;28;20397;-84
2022/10/12 04:17:24;;;;;;;1.40;1.30;;;;;;;7.40;61.14;101835.03;5155022;28;20056;-82
2022/10/12 04:19:58;;;;;;;1.85;1.75;;;;;;;7.40;61.45;101837.63;5156402;28;20038;-83
2022/10/12 04:22:29;;;;;;;1.60;1.50;;;;;;;7.40;61.38;101845.47;5148115;28;20023;-85
2022/10/12 04:24:59;;;;;;;1.83;1.67;;;;;;;7.35;61.93;101840.25;5162627;28;20061;-84
2022/10/12 04:27:30;;;;;;;0.55;0.55;;;;;;;7.34;61.52;101841.13;5179549;28;20033;-84
2022/10/12 04:30:06;;;;;;;0.68;0.68;;;;;;;7.32;61.22;101840.22;5151307;28;20053;-84
2022/10/12 04:32:41;;;;;;;1.35;1.25;;;;;;;7.31;61.69;101833.25;5171228;28;20041;-84
2022/10/12 04:35:19;;;;;;;1.75;1.65;;;;;;;7.32;61.87;101832.41;5178177;28;20200;-83
2022/10/12 04:37:49;;;;;;;0.52;0.52;;;;;;;7.33;61.87;101833.25;5160270;28;20025;-83
2022/10/12 04:40:20;;;;;;;0.30;0.30;;;;;;;7.33;61.95;101833.25;5143620;28;20064;-85
2022/10/12 04:42:54;;;;;;;0.82;0.82;;;;;;;7.30;61.77;101828.03;5158873;28;20040;-85
2022/10/12 04:45:27;;;;;;;1.25;1.17;;;;;;;7.30;62.07;101822.81;5142712;28;20060;-81
2022/10/12 04:48:00;;;;;;;4.70;1.48;;;;;;;7.29;62.27;101827.16;5175218;28;20026;-83
2022/10/12 04:50:32;;;;;;;1.40;1.30;;;;;;;7.23;61.78;101827.13;5154913;28;20039;-82
2022/10/12 04:53:02;;;;;;;0.80;0.80;;;;;;;7.20;61.86;101825.38;5171921;28;20560;-82
2022/10/12 04:55:36;;;;;;;3.30;1.70;;;;;;;7.21;61.78;101824.53;5171861;28;20091;-82
2022/10/12 04:58:06;;;;;;;;;;;;;;;7.21;62.16;101829.75;5156617;28;20259;-81
2022/10/12 05:00:40;;;;;;;1.17;1.17;;;;;;;7.15;62.09;101824.47;5185226;28;19947;-81
2022/10/12 05:03:10;;;;;;;0.85;0.85;;;;;;;7.20;62.41;101822.78;5188414;28;20109;-82
2022/10/12 05:05:43;;;;;;;1.08;1.08;;;;;;;7.20;61.66;101828.00;5156767;28;20508;-83
2022/10/12 05:08:14;;;;;;;3.25;1.83;;;;;;;7.20;62.02;101822.78;5176446;28;20093;-81
2022/10/12 05:10:58;;;;;;;3.95;3.00;;;;;;;7.17;62.03;101820.13;5177157;28;20037;-81
2022/10/12 05:13:31;;;;;;;1.38;1.25;;;;;;;7.17;61.59;101817.53;5182592;28;20060;-82
2022/10/12 05:16:02;;;;;;;1.58;1.48;;;;;;;7.19;61.92;101818.41;5136687;28;20133;-81
2022/10/12 05:18:32;;;;;;;2.22;2.13;;;;;;;7.19;62.24;101820.16;5188902;28;20049;-79
2022/10/12 05:21:03;;;;;;;0.43;0.43;;;;;;;7.17;61.99;101811.44;5202005;28;20314;-81
2022/10/12 05:23:42;;;;;;;1.65;1.55;;;;;;;7.14;62.21;101812.31;5194811;28;20629;-80
2022/10/12 05:26:13;;;;;;;;;;;;;;;7.12;61.82;101814.03;5171910;28;20061;-82
2022/10/12 05:28:43;;;;;;;0.50;0.50;;;;;;;7.09;62.14;101812.28;5152377;28;19917;-81
2022/10/12 05:31:24;;;;;;;0.30;0.30;;;;;;;7.09;62.17;101806.19;5177956;28;20174;-81
2022/10/12 05:33:55;;;;;;;1.00;1.00;;;;;;;7.12;61.99;101811.44;5173900;28;20037;-82
2022/10/12 05:36:25;;;;;;;0.57;0.57;;;;;;;7.11;62.31;101812.28;5170688;28;20037;-81
2022/10/12 05:38:56;;;;;;;0.93;0.80;;;;;;;7.07;61.93;101815.72;5163668;28;20042;-80
2022/10/12 05:41:26;;;;;;;1.05;1.05;;;;;;;7.05;62.17;101812.25;5189775;28;20033;-81
2022/10/12 05:43:57;;;;;;;0.40;0.40;;;;;;;7.08;61.84;101818.38;5172509;28;20034;-81
2022/10/12 05:46:27;;;;;;;1.95;1.73;;;;;;;7.07;61.94;101823.56;5158912;28;20099;-81
2022/10/12 05:48:58;;;;;;;1.88;1.77;;;;;;;7.06;61.84;101816.63;5145922;28;20046;-81
2022/10/12 05:51:28;;;;;;;0.93;0.93;;;;;;;7.05;61.88;101817.50;5153332;28;20033;-82
2022/10/12 05:53:59;;;;;;;1.25;1.25;;;;;;;6.99;62.48;101807.88;5152745;28;20064;-82
2022/10/12 05:56:29;;;;;;;2.35;2.15;;;;;;;7.03;61.93;101806.16;5168042;28;20033;-82
2022/10/12 05:59:00;;;;;;;0.80;0.80;;;;;;;6.97;62.19;101808.75;5144877;28;20078;-82
2022/10/12 06:01:30;;;;;;;0.60;0.60;;;;;;;6.99;61.97;101817.44;5124138;28;20038;-82
2022/10/12 06:04:01;;;;;;;0.40;0.40;;;;;;;6.97;62.11;101819.19;5158058;28;20050;-82
2022/10/12 06:06:31;;;;;;;1.77;1.67;;;;;;;6.93;62.07;101813.94;5168167;28;20094;-82
2022/10/12 06:09:02;;;;;;;0.65;0.65;;;;;;;6.96;62.49;101818.28;5184966;28;20061;-83
2022/10/12 06:11:33;;;;;;;1.92;1.13;;;;;;;6.93;62.38;101816.53;5183742;28;20099;-83
2022/10/12 06:14:03;;;;;;;4.22;2.90;;;;;;;6.92;62.62;101816.53;5196614;28;20042;-82
2022/10/12 06:16:34;;;;;;;0.43;0.43;;;;;;;6.93;62.03;101816.53;5181379;28;20045;-82
2022/10/12 06:19:10;;;;;;;1.45;1.35;;;;;;;6.90;61.87;101821.72;5162091;28;20133;-83
2022/10/12 06:21:41;;;;;;;1.13;1.13;;;;;;;6.91;62.22;101825.22;5150116;28;20550;-82
2022/10/12 06:24:14;;;;;;;1.80;1.70;;;;;;;6.92;62.58;101825.22;5153420;28;20045;-82
2022/10/12 06:26:45;;;;;;;1.45;1.35;;;;;;;6.93;62.43;101828.72;5197601;28;20458;-83
2022/10/12 06:29:16;;;;;;;1.55;1.45;;;;;;;6.91;62.06;101831.31;5171123;28;20052;-82
2022/10/12 06:31:46;;;;;;;1.45;1.35;;;;;;;6.90;61.95;101831.31;5164052;28;20025;-81
2022/10/12 06:34:17;;;;;;;0.45;0.45;;;;;;;6.85;62.48;101826.06;5161677;28;20041;-83
2022/10/12 06:36:48;;;;;;;1.05;1.05;;;;;;;6.91;62.27;101826.09;5177106;28;20042;-82
2022/10/12 06:39:19;;;;;;;1.17;1.17;;;;;;;6.89;62.49;101827.84;5175348;28;20042;-82
2022/10/12 06:41:49;;;;;;;0.55;0.55;;;;;;;6.94;62.25;101827.88;5156777;28;20453;-83
2022/10/12 06:44:21;;;;;;;0.60;0.60;;;;;;;6.90;62.46;101834.78;5188724;28;20037;-84
2022/10/12 06:46:52;;;;;;;0.50;0.50;;;;;;;6.77;62.91;101832.97;5160754;28;20557;-83
2022/10/12 06:49:25;;;;;;;0.45;0.45;;;;;;;6.83;62.49;101827.78;5161935;28;20049;-82
2022/10/12 06:51:58;;;;;;;1.52;1.52;;;;;;;6.85;62.37;101833.88;5179898;28;20033;-82
2022/10/12 06:54:29;;;;;;;0.60;0.57;;;;;;;6.86;62.27;101832.16;5175245;28;20082;-83
2022/10/12 06:57:23;;;;;;;2.55;1.98;;;;;;;6.85;62.57;101838.25;5160258;28;20896;-84
2022/10/12 06:59:54;;;;;;;;;;;;;;;6.85;62.88;101830.41;5144113;28;20547;-83
2022/10/12 07:02:24;;;;;;;0.90;0.90;;;;;;;6.80;63.17;101825.19;5166855;28;19992;-83
2022/10/12 07:04:55;;;;;;;10.65;6.88;;;;;;;6.78;63.44;101819.06;5151506;28;20073;-81
2022/10/12 07:07:33;;;;;;;3.22;3.00;;;;;;;6.82;63.10;101815.59;5197595;28;20029;-82
2022/10/12 07:10:10;;;;;;;3.80;2.13;;;;;;;6.81;63.70;101821.72;5159829;28;20405;-81
2022/10/12 07:12:41;;;;;;;1.65;1.48;;;;;;;6.80;64.15;101817.34;5197660;28;20045;-83
2022/10/12 07:15:11;;;;;;;4.63;1.92;;;;;;;6.86;63.89;101811.31;5176814;28;20026;-82
2022/10/12 07:17:43;;;;;;;1.00;0.93;;;;;;;6.87;64.00;101813.91;5207242;28;20075;-82
2022/10/12 07:20:14;;;;;;;1.38;1.33;;;;;;;6.91;63.83;101812.19;5202277;28;20033;-80
2022/10/12 07:22:53;;;;;;;5.82;2.13;;;;;;;6.89;64.22;101812.19;5175807;28;20099;-82
2022/10/12 07:25:31;;;;;;;1.83;1.73;;;;;;;6.91;65.43;101813.03;5180014;28;20121;-81
2022/10/12 07:28:04;;;;;;;0.85;0.85;;;;;;;6.90;66.13;101819.13;5153210;28;20052;-82
2022/10/12 07:30:45;;;;;;;1.02;1.00;;;;;;;6.98;65.45;101827.00;5168923;28;20071;-83
2022/10/12 07:33:16;;;;;;;0.60;0.60;;;;;;;6.99;67.84;101817.44;5161735;28;20761;-84
2022/10/12 07:35:54;;;;;;;0.63;0.63;;;;;;;7.05;65.87;101822.72;5169579;28;20033;-82
2022/10/12 07:38:27;;;;;;;1.40;1.35;;;;;;;7.08;65.98;101823.59;5131713;28;20109;-83
2022/10/12 07:41:02;;;;;;;0.50;0.50;;;;;;;7.09;68.43;101820.13;5163545;28;20053;-82
2022/10/12 07:43:33;;;;;;;0.40;0.40;;;;;;;7.17;66.79;101825.34;5142036;28;20037;-82
2022/10/12 07:46:04;;;;;;;3.50;2.17;;;;;;;7.20;66.64;101828.00;5185379;28;20030;-82
2022/10/12 07:48:40;;;;;;;0.52;0.52;;;;;;;7.29;67.17;101821.94;5151578;28;20556;-81
2022/10/12 07:51:11;;;;;;;1.05;1.05;;;;;;;7.34;67.16;101824.56;5151651;28;20037;-81
2022/10/12 07:53:41;;;;;;;0.65;0.65;;;;;;;7.40;66.36;101835.91;5153069;28;20671;-82
2022/10/12 07:56:15;;;;;;;0.95;0.95;;;;;;;7.42;67.09;101830.69;5168056;28;20332;-83
2022/10/12 07:58:48;;;;;;;0.50;0.50;;;;;;;7.46;67.59;101832.47;5147407;28;20092;-82
2022/10/12 08:01:22;;;;;;;0.93;0.93;;;;;;;7.49;67.64;101828.97;5163141;28;20183;-82
2022/10/12 08:03:53;;;;;;;0.65;0.65;;;;;;;7.53;72.47;101826.38;5167830;28;20124;-82
2022/10/12 08:06:28;;;;;;;0.50;0.50;;;;;;;7.59;68.23;101832.50;5166414;28;20068;-82
2022/10/12 08:09:03;;;;;;;0.55;0.55;;;;;;;7.64;68.32;101823.81;5170059;28;20570;-83
2022/10/12 08:11:38;;;;;;;29.52;1.08;;;;;;;7.71;68.75;101822.09;5130280;28;20093;-83
2022/10/12 08:14:13;;;;;;;0.40;0.40;;;;;;;7.78;68.14;101820.34;5120246;28;20033;-83
2022/10/12 08:16:47;;;;;;;0.68;0.68;;;;;;;7.81;70.06;101821.22;5139590;28;20080;-82
2022/10/12 08:19:20;;;;;;;1.05;0.95;;;;;;;7.84;71.08;101813.41;5148304;28;20494;-83
2022/10/12 08:21:54;;;;;;;;;;;;;;;7.90;69.29;101816.88;5152833;28;20429;-81
2022/10/12 08:24:24;;;;;;;0.50;0.50;;;;;;;7.98;68.56;101820.38;5155924;28;19917;-82
2022/10/12 08:26:55;;;;;;;0.35;0.35;;;;;;;8.03;68.02;101811.69;5196258;28;20026;-81
2022/10/12 08:29:25;;;;;;;1.13;1.05;;;;;;;8.07;69.84;101815.16;5181590;28;20140;-83
2022/10/12 08:31:56;;;;;;;7.38;3.70;;;;;;;8.18;70.97;101817.81;5161475;28;20061;-81
2022/10/12 08:34:27;;;;;;;2.92;2.72;;;;;;;8.20;68.96;101813.44;5124704;28;20073;-82
2022/10/12 08:36:58;;;;;;;0.75;0.75;;;;;;;8.23;69.97;101813.44;5145971;28;20034;-82
2022/10/12 08:39:29;;;;;;;1.02;0.88;;;;;;;8.24;71.06;101811.69;5157070;28;20049;-80
2022/10/12 08:42:24;;;;;;;0.43;0.43;;;;;;;8.44;71.16;101817.78;5130897;28;20038;-81
2022/10/12 08:45:19;;;;;;;1.38;1.38;;;;;;;8.49;71.89;101809.97;5176981;28;20046;-80
2022/10/12 08:48:00;;;;;;;0.50;0.50;;;;;;;8.47;73.32;101807.34;5148473;28;20080;-80
2022/10/12 08:50:34;;;;;;;0.88;0.88;;;;;;;8.55;73.17;101803.88;5149875;28;20038;-80
2022/10/12 08:53:33;;;;;;;0.55;0.55;;;;;;;8.71;72.13;101802.09;5148199;28;20045;-80
2022/10/12 08:56:04;;;;;;;7.13;1.80;;;;;;;8.80;72.10;101810.78;5165200;28;20025;-80
2022/10/12 08:58:37;;;;;;;0.57;0.57;;;;;;;8.86;72.44;101814.28;5148032;28;20046;-80
2022/10/12 09:01:35;;;;;;;1.00;0.97;;;;;;;8.88;71.55;101816.00;5165230;28;20051;-80
2022/10/12 09:04:21;;;;;;;0.50;0.50;;;;;;;8.90;71.84;101818.63;5167086;28;20542;-80
2022/10/12 09:07:02;;;;;;;0.73;0.73;;;;;;;9.00;72.14;101824.72;5149142;28;20045;-80
2022/10/12 09:09:32;;;;;;;1.65;1.08;;;;;;;9.08;72.25;101826.44;5131487;28;20517;-80
2022/10/12 09:12:40;;;;;;;1.17;1.17;;;;;;;9.07;71.98;101827.31;5167379;28;20042;-80
2022/10/12 09:15:17;;;;;;;0.57;0.57;;;;;;;9.11;71.67;101826.44;5151521;28;20544;-80
2022/10/12 09:18:01;;;;;;;0.47;0.47;;;;;;;9.16;72.64;101826.41;5168246;28;20041;-80
2022/10/12 09:20:43;;;;;;;0.60;0.60;;;;;;;9.19;72.28;101822.91;5125316;28;20209;-80
2022/10/12 09:23:24;;;;;;;3.00;1.17;;;;;;;9.17;72.18;101830.78;5165219;28;20037;-80
2022/10/12 09:26:08;;;;;;;2.40;1.60;;;;;;;9.25;72.89;101835.97;5186195;28;20069;-80
2022/10/12 09:28:56;;;;;;;0.80;0.63;;;;;;;9.26;72.42;101829.88;5168456;28;20301;-80
2022/10/12 09:31:51;;;;;;;0.73;0.73;;;;;;;9.32;71.63;101832.44;5185711;28;20698;-80
2022/10/12 09:34:23;;;;;;;0.47;0.47;;;;;;;9.33;71.85;101828.97;5180592;28;20441;-81
2022/10/12 09:36:54;;;;;;;2.65;1.70;;;;;;;9.49;71.68;101827.16;5161964;28;20437;-81
2022/10/12 09:39:31;;;;;;;1.05;1.05;;;;;;;9.47;71.94;101828.00;5139902;28;20021;-80
2022/10/12 09:42:10;;;;;;;0.30;0.30;;;;;;;9.47;72.22;101823.66;5209960;28;20063;-81
2022/10/12 09:44:51;;;;;;;0.55;0.55;;;;;;;9.52;71.59;101821.03;5163325;28;20129;-80
2022/10/12 09:47:26;;;;;;;0.60;0.60;;;;;;;9.53;71.75;101818.38;5169358;28;20611;-80
2022/10/12 09:50:04;;;;;;;0.95;0.60;;;;;;;9.60;71.48;101808.75;5184632;28;20097;-81
2022/10/12 09:52:34;;;;;;;1.48;1.05;;;;;;;9.67;71.70;101810.44;5168052;28;20034;-81
2022/10/12 09:55:22;;;;;;;0.60;0.60;;;;;;;9.70;71.74;101810.44;5153958;28;20057;-81
2022/10/12 09:57:59;;;;;;;2.05;1.23;;;;;;;9.71;72.12;101808.69;5168048;28;20152;-81
2022/10/12 10:00:32;;;;;;;0.55;0.55;;;;;;;9.76;70.66;101799.91;5143376;28;20653;-81
2022/10/12 10:03:03;;;;;;;1.83;1.10;;;;;;;9.79;70.69;101813.88;5118046;28;20042;-80
2022/10/12 10:05:37;;;;;;;2.67;1.05;;;;;;;9.82;70.74;101808.59;5147406;28;20096;-81
2022/10/12 10:08:20;;;;;;;3.40;2.05;;;;;;;9.88;70.41;101808.56;5120180;28;20030;-81
2022/10/12 10:11:03;;;;;;;0.63;0.60;;;;;;;9.93;70.75;101815.53;5119441;28;20179;-81
2022/10/12 10:13:36;;;;;;;0.60;0.60;;;;;;;9.94;70.36;101816.41;5159029;28;20045;-80
2022/10/12 10:16:15;;;;;;;0.80;0.80;;;;;;;9.97;70.32;101818.13;5126056;28;20026;-81
2022/10/12 10:18:56;;;;;;;0.88;0.88;;;;;;;10.07;69.80;101815.44;5153912;28;20049;-81
2022/10/12 10:21:36;;;;;;;0.55;0.55;;;;;;;10.15;70.78;101817.13;5150849;28;20453;-80
2022/10/12 10:24:24;;;;;;;0.90;0.73;;;;;;;10.26;70.36;101814.41;5112293;28;20098;-80
2022/10/12 10:27:07;;;;;;;0.40;0.40;;;;;;;10.26;69.57;101819.66;5167346;28;20026;-81
2022/10/12 10:29:40;;;;;;;0.60;0.60;;;;;;;10.28;69.83;101815.28;5153254;28;20037;-81
2022/10/12 10:32:28;;;;;;;0.95;0.95;;;;;;;10.39;68.87;101811.69;5186806;28;20045;-80
2022/10/12 10:35:10;;;;;;;2.60;1.10;;;;;;;10.54;69.26;101812.44;5141357;28;20034;-80
2022/10/12 10:37:50;;;;;;;1.40;1.33;;;;;;;10.57;68.44;101809.78;5146486;28;20026;-80
2022/10/12 10:40:32;;;;;;;0.93;0.93;;;;;;;10.73;68.09;101807.91;5132088;28;20297;-80
2022/10/12 10:43:24;;;;;;;0.98;0.82;;;;;;;10.66;68.00;101806.22;5150120;28;20049;-80
2022/10/12 10:46:12;;;;;;;1.10;1.02;;;;;;;10.76;67.70;101807.00;5185757;28;20036;-80
2022/10/12 10:48:57;;;;;;;1.30;1.20;;;;;;;10.87;68.14;101812.97;5162898;28;20537;-81
2022/10/12 10:51:46;;;;;;;0.30;0.30;;;;;;;10.93;67.51;101806.78;5188315;28;20037;-80
2022/10/12 10:54:23;;;;;;;0.85;0.85;;;;;;;10.89;68.21;101799.84;5135098;28;20053;-80
2022/10/12 10:57:12;;;;;;;0.82;0.82;;;;;;;10.98;67.33;101799.75;5143220;28;20034;-80
2022/10/12 11:00:02;;;;;;;0.68;0.68;;;;;;;11.09;67.22;101799.63;5136050;28;20056;-81
2022/10/12 11:02:41;;;;;;;0.40;0.40;;;;;;;11.12;66.71;101799.56;5159555;28;20113;-81
2022/10/12 11:05:19;;;;;;;0.50;0.50;;;;;;;11.10;66.98;101788.22;5172516;28;20042;-80
2022/10/12 11:07:59;;;;;;;0.43;0.43;;;;;;;11.28;66.97;101776.63;5151354;28;20032;-81
2022/10/12 11:10:34;;;;;;;1.02;0.90;;;;;;;11.38;67.04;101782.59;5161938;28;20045;-80
2022/10/12 11:13:34;;;;;;;0.60;0.60;;;;;;;11.49;65.71;101778.09;5153443;28;20041;-81
2022/10/12 11:16:23;;;;;;;0.63;0.63;;;;;;;11.59;65.67;101777.06;5178034;28;20057;-80
2022/10/12 11:19:37;;;;;;;3.10;0.93;;;;;;;11.52;66.25;101775.44;5147735;28;20045;-80
2022/10/12 11:22:16;;;;;;;0.70;0.70;;;;;;;11.83;64.03;101774.97;5163652;28;20434;-79
2022/10/12 11:24:50;;;;;;;0.70;0.70;;;;;;;11.92;63.77;101769.56;5174199;28;20041;-80
2022/10/12 11:27:33;;;;;;;0.28;0.28;;;;;;;11.98;63.39;101759.84;5191776;28;20029;-81
2022/10/12 11:30:13;;;;;;;0.40;0.40;;;;;;;12.00;64.25;101772.09;5136603;28;20041;-80
2022/10/12 11:32:50;;;;;;;0.35;0.35;;;;;;;12.40;62.01;101767.91;5143937;28;20038;-80
2022/10/12 11:35:34;;;;;;;0.40;0.40;;;;;;;12.52;61.66;101757.16;5133187;28;20034;-80
2022/10/12 11:38:21;;;;;;;2.60;1.55;;;;;;;12.57;62.40;101762.31;5148670;28;20125;-79
2022/10/12 11:40:54;;;;;;;0.85;0.85;;;;;;;12.87;60.86;101760.88;5148930;28;20100;-78
2022/10/12 11:43:37;;;;;;;0.30;0.30;;;;;;;12.86;61.29;101753.88;5140538;28;20045;-78
2022/10/12 11:46:15;;;;;;;0.50;0.50;;;;;;;12.82;62.59;101753.94;5139172;28;20026;-83
2022/10/12 11:48:51;;;;;;;0.32;0.32;;;;;;;12.79;61.92;101749.63;5185783;28;20035;-80
2022/10/12 11:51:22;;;;;;;1.05;0.95;;;;;;;13.44;59.41;101748.28;5197190;28;20029;-81
2022/10/12 11:53:59;;;;;;;0.77;0.77;;;;;;;13.58;59.22;101744.47;5160246;28;20081;-81
2022/10/12 11:56:46;;;;;;;0.80;0.80;;;;;;;13.64;59.61;101737.28;5159889;28;20038;-82
2022/10/12 12:00:11;;;;;;;0.40;0.40;;;;;;;13.90;59.04;101730.50;5138042;28;20481;-81
2022/10/12 12:02:49;;;;;;;1.45;1.02;;;;;;;13.79;59.95;101730.78;5117789;28;20097;-79
2022/10/12 12:05:19;;;;;;;1.17;0.75;;;;;;;13.79;60.08;101728.13;5142800;28;20042;-79
2022/10/12 12:07:55;;;;;;;0.65;0.65;;;;;;;13.90;60.12;101722.59;5176277;28;20072;-80
2022/10/12 12:10:35;;;;;;;0.40;0.40;;;;;;;13.89;59.55;101725.28;5165890;28;20091;-82
2022/10/12 12:13:13;;;;;;;1.40;1.30;;;;;;;13.88;60.92;101726.16;5174683;28;20033;-81
2022/10/12 12:15:48;;;;;;;0.82;0.50;;;;;;;13.91;59.58;101723.47;5167122;28;20010;-80
2022/10/12 12:18:28;;;;;;;0.93;0.93;;;;;;;13.92;60.28;101717.28;5176096;28;20026;-80